Time;durP1;ratioP1;P1;durP2;ratioP2;P2;SDS_P1;SDS_P2;PMS_P1;PMS_P2;Temp;Humidity;BMP_temperature;BMP_pressure;BME280_temperature;BME280_humidity;BME280_pressure;Samples;Min_cycle;Max_cycle;Signal;HPM_P1;HPM_P2
2023/07/21 00:00:15;;;;;;;17.42;15.68;;;;;;;12.57;100.00;101210.72;5012817;28;20049;-79
2023/07/21 00:02:41;;;;;;;16.88;15.27;;;;;;;12.84;100.00;101253.91;5012703;28;20034;-79
2023/07/21 00:05:10;;;;;;;16.00;14.50;;;;;;;12.80;100.00;101247.28;5012709;28;20026;-78
2023/07/21 00:07:36;;;;;;;16.83;15.13;;;;;;;12.76;100.00;101253.56;5012680;28;20022;-79
2023/07/21 00:10:07;;;;;;;16.13;14.52;;;;;;;12.75;100.00;101250.16;5012687;28;20045;-79
2023/07/21 00:12:37;;;;;;;15.82;14.32;;;;;;;12.71;100.00;101250.47;5012694;28;20044;-79
2023/07/21 00:15:06;;;;;;;16.27;13.85;;;;;;;12.65;100.00;101249.09;5012676;28;20109;-78
2023/07/21 00:17:34;;;;;;;16.80;15.10;;;;;;;12.55;100.00;101241.09;5012575;28;20112;-78
2023/07/21 00:20:10;;;;;;;16.08;14.48;;;;;;;12.51;100.00;101239.63;5012623;28;20034;-79
2023/07/21 00:22:35;;;;;;;14.82;13.25;;;;;;;12.38;100.00;101219.78;4994866;28;20080;-77
2023/07/21 00:25:01;;;;;;;15.60;14.00;;;;;;;12.56;100.00;101241.91;4994855;28;20382;-78
2023/07/21 00:27:27;;;;;;;14.52;13.13;;;;;;;12.53;100.00;101245.53;5012874;28;20116;-78
2023/07/21 00:29:52;;;;;;;15.27;13.88;;;;;;;12.47;100.00;101232.97;5012523;28;20022;-77
2023/07/21 00:32:18;;;;;;;15.05;13.65;;;;;;;12.31;100.00;101215.00;5012638;28;20411;-77
2023/07/21 00:34:44;;;;;;;16.52;13.43;;;;;;;12.26;100.00;101216.22;5014922;28;20030;-78
2023/07/21 00:37:10;;;;;;;14.32;12.93;;;;;;;12.40;100.00;101238.66;5016764;28;20022;-77
2023/07/21 00:39:36;;;;;;;15.38;13.77;;;;;;;12.32;100.00;101233.97;5016350;28;20540;-77
2023/07/21 00:42:04;;;;;;;16.05;14.43;;;;;;;12.42;100.00;101231.63;4998281;28;20026;-78
2023/07/21 00:44:30;;;;;;;14.88;13.38;;;;;;;12.37;100.00;101237.06;5016277;28;20021;-77
2023/07/21 00:46:55;;;;;;;15.07;13.48;;;;;;;12.38;100.00;101246.50;5015941;28;20080;-77
2023/07/21 00:49:20;;;;;;;15.38;13.77;;;;;;;12.39;100.00;101242.16;5031475;28;20030;-77
2023/07/21 00:51:46;;;;;;;14.68;13.20;;;;;;;12.37;100.00;101242.25;4998321;28;20042;-78
2023/07/21 00:54:11;;;;;;;14.27;12.88;;;;;;;12.13;100.00;101203.22;4998492;28;20034;-78
2023/07/21 00:56:36;;;;;;;14.93;13.32;;;;;;;12.31;100.00;101232.31;5085031;23;20466;-78
2023/07/21 00:59:03;;;;;;;13.25;11.85;;;;;;;12.25;100.00;101230.09;5015573;28;20026;-77
2023/07/21 01:01:28;;;;;;;13.18;11.80;;;;;;;12.11;100.00;101212.88;5015975;28;20134;-78
2023/07/21 01:03:54;;;;;;;12.30;10.65;;;;;;;12.17;100.00;101233.16;5016069;28;20113;-78
2023/07/21 01:06:21;;;;;;;12.60;11.40;;;;;;;12.02;100.00;101203.91;5015854;28;20046;-76
2023/07/21 01:08:47;;;;;;;12.00;10.80;;;;;;;12.11;100.00;101220.63;5016134;28;20104;-77
2023/07/21 01:11:13;;;;;;;12.27;10.98;;;;;;;12.09;100.00;101221.63;5016013;28;20454;-77
2023/07/21 01:13:40;;;;;;;12.45;11.25;;;;;;;12.08;100.00;101215.63;5015606;28;20029;-78
2023/07/21 01:16:07;;;;;;;11.38;10.27;;;;;;;12.05;100.00;101210.66;5015665;28;20045;-78
2023/07/21 01:18:33;;;;;;;11.63;10.50;;;;;;;11.97;100.00;101203.34;5015665;28;20109;-78
2023/07/21 01:21:00;;;;;;;11.63;10.43;;;;;;;12.01;100.00;101214.38;5015481;28;20554;-78
2023/07/21 01:23:44;;;;;;;15.18;10.82;;;;;;;11.88;100.00;101196.16;4997680;28;20049;-77
2023/07/21 01:26:11;;;;;;;12.15;10.45;;;;;;;11.91;100.00;101205.53;5015343;28;20485;-78
2023/07/21 01:28:40;;;;;;;11.65;10.45;;;;;;;11.88;100.00;101208.28;5015249;28;20053;-78
2023/07/21 01:31:06;;;;;;;12.02;10.82;;;;;;;11.85;100.00;101209.31;5015372;28;20026;-78
2023/07/21 01:33:32;;;;;;;11.43;10.18;;;;;;;11.80;100.00;101200.16;5015215;28;20504;-78
2023/07/21 01:35:59;;;;;;;12.60;10.77;;;;;;;11.61;100.00;101179.75;5015470;28;20026;-78
2023/07/21 01:38:29;;;;;;;12.50;11.30;;;;;;;11.73;100.00;101200.53;5015658;28;20408;-78
2023/07/21 01:40:55;;;;;;;11.90;10.50;;;;;;;11.52;100.00;101169.97;5015354;28;20033;-77
2023/07/21 01:43:23;;;;;;;11.77;10.63;;;;;;;11.69;100.00;101199.03;5015114;28;20040;-78
2023/07/21 01:45:49;;;;;;;12.23;11.02;;;;;;;11.58;100.00;101183.34;5014731;28;20125;-78
2023/07/21 01:48:14;;;;;;;11.80;10.60;;;;;;;11.31;100.00;101141.09;5015017;28;20505;-78
2023/07/21 01:50:41;;;;;;;11.43;10.23;;;;;;;11.55;100.00;101188.72;5014882;28;20022;-78
2023/07/21 01:53:13;;;;;;;13.57;12.18;;;;;;;11.58;100.00;101187.69;4997368;28;20041;-79
2023/07/21 01:55:50;;;;;;;12.07;10.85;;;;;;;11.55;100.00;101182.72;5014786;28;20107;-79
2023/07/21 01:58:18;;;;;;;10.88;9.77;;;;;;;11.45;100.00;101177.28;5014635;28;20061;-79
2023/07/21 02:00:44;;;;;;;10.15;9.05;;;;;;;11.40;100.00;101172.38;5014916;28;20401;-79
2023/07/21 02:03:10;;;;;;;10.30;9.23;;;;;;;11.44;100.00;101173.03;5014719;28;20036;-79
2023/07/21 02:05:36;;;;;;;9.15;8.02;;;;;;;11.43;100.00;101172.19;5015012;28;20030;-79
2023/07/21 02:08:01;;;;;;;12.68;8.13;;;;;;;11.24;100.00;101145.78;5014732;28;20417;-79
2023/07/21 02:16:50;;;;;;;9.77;7.97;;;;;;;11.32;100.00;101172.03;5237117;22;20053;-80
2023/07/21 02:28:01;;;;;;;11.38;10.27;;;;;;;11.24;100.00;101176.00;5014588;28;20042;-80
2023/07/21 02:30:33;;;;;;;11.45;9.88;;;;;;;11.16;100.00;101173.84;5014006;28;20040;-79
2023/07/21 02:33:30;;;;;;;13.65;9.25;;;;;;;11.13;100.00;101169.72;5014304;28;20026;-79
2023/07/21 02:36:08;;;;;;;9.52;8.63;;;;;;;10.57;100.00;101082.63;5014285;28;20022;-79
2023/07/21 02:38:51;;;;;;;9.90;8.90;;;;;;;9.79;100.00;100955.53;5014337;28;20030;-79
2023/07/21 02:41:22;;;;;;;9.82;8.82;;;;;;;10.53;100.00;101076.00;5014254;28;20390;-79
2023/07/21 02:43:54;;;;;;;8.60;7.80;;;;;;;9.99;100.00;101001.66;5013852;28;20029;-79
2023/07/21 02:53:24;;;;;;;8.30;7.32;;;;;;;10.95;100.00;101162.22;5013958;28;20540;-79
2023/07/21 03:02:34;;;;;;;8.57;7.65;;;;;;;9.52;100.00;100950.19;5013602;28;20048;-79
2023/07/21 03:09:07;;;;;;;9.05;8.02;;;;;;;10.79;100.00;101160.53;4991833;28;20042;-79
2023/07/21 03:47:50;;;;;;;11.55;10.35;;;;;;;10.59;100.00;101155.69;5169884;23;20066;-78
2023/07/21 03:51:09;;;;;;;10.93;9.75;;;;;;;10.62;100.00;101151.19;4991872;28;20030;-79
2023/07/21 03:57:39;;;;;;;12.70;11.35;;;;;;;10.64;100.00;101153.69;4952347;29;20471;-80
2023/07/21 04:03:38;;;;;;;13.20;10.63;;;;;;;10.07;100.00;101056.22;4952481;29;20050;-79
2023/07/21 04:10:02;;;;;;;12.00;10.32;;;;;;;10.63;100.00;101139.94;4952800;28;20042;-79
2023/07/21 04:12:46;;;;;;;12.32;10.50;;;;;;;10.11;100.00;101045.72;4952410;29;20065;-79
2023/07/21 04:15:30;;;;;;;12.07;10.77;;;;;;;10.71;100.00;101141.22;4952374;29;20035;-79
2023/07/21 04:18:13;;;;;;;12.52;10.52;;;;;;;9.76;100.00;100973.78;4952424;29;20111;-79
2023/07/21 04:20:53;;;;;;;12.95;11.60;;;;;;;9.45;100.00;100907.66;4952556;29;20458;-79
2023/07/21 04:26:42;;;;;;;12.57;11.25;;;;;;;9.73;100.00;100940.41;4953000;28;20045;-79
2023/07/21 04:43:24;;;;;;;11.27;10.07;;;;;;;11.53;100.00;101130.25;4952082;29;19922;-80
2023/07/21 04:49:13;;;;;;;11.55;10.35;;;;;;;10.36;100.00;100914.34;4951428;28;20050;-79
2023/07/21 04:52:12;;;;;;;12.15;10.80;;;;;;;11.77;100.00;101120.94;4951979;29;20046;-79
2023/07/21 04:55:30;;;;;;;12.38;11.18;;;;;;;11.89;100.00;101121.94;4951872;28;20442;-79
2023/07/21 04:57:58;;;;;;;12.60;11.25;;;;;;;10.69;100.00;100906.28;4951876;29;20032;-80
2023/07/21 05:03:05;;;;;;;13.48;12.15;;;;;;;11.84;100.00;101049.81;5527761;23;20061;-80
2023/07/21 05:06:05;;;;;;;12.85;11.55;;;;;;;12.43;100.00;101114.97;5027258;28;20037;-79
2023/07/21 05:08:41;;;;;;;13.25;11.80;;;;;;;12.30;100.00;101057.97;5011833;28;20053;-79
2023/07/21 05:11:37;;;;;;;14.68;12.32;;;;;;;13.08;100.00;101133.03;5012388;28;20026;-79
2023/07/21 05:17:41;;;;;;;12.93;11.50;;;;;;;14.59;100.00;101126.56;4970594;28;20031;-79
2023/07/21 05:20:21;;;;;;;13.35;10.68;;;;;;;14.83;100.00;101028.50;4956181;28;20031;-79
2023/07/21 05:30:42;;;;;;;12.10;10.40;;;;;;;17.61;98.39;101127.16;4955358;28;20525;-80
2023/07/21 05:33:13;;;;;;;13.65;10.85;;;;;;;18.21;87.24;100977.13;4954757;28;20479;-78
2023/07/21 05:36:15;;;;;;;11.48;9.70;;;;;;;19.93;86.66;101137.84;4955074;28;20019;-77
2023/07/21 05:38:40;;;;;;;11.35;9.65;;;;;;;18.97;79.08;101010.13;4955041;28;20027;-78
2023/07/21 05:41:30;;;;;;;11.00;9.65;;;;;;;19.64;84.83;101138.06;4954725;28;20051;-78
2023/07/21 05:44:38;;;;;;;10.85;9.75;;;;;;;19.46;83.66;101127.53;4955008;28;20090;-79
2023/07/21 05:47:19;;;;;;;9.73;8.60;;;;;;;19.05;82.25;101055.53;4954676;28;20043;-79
2023/07/21 05:49:44;;;;;;;10.55;9.48;;;;;;;19.76;79.26;101130.81;4954909;28;20494;-79
2023/07/21 05:52:36;;;;;;;10.48;8.73;;;;;;;20.18;77.83;101127.59;4954854;28;20114;-79
2023/07/21 05:55:16;;;;;;;9.40;8.50;;;;;;;19.90;77.62;100977.47;4955052;28;20027;-78
2023/07/21 06:01:38;;;;;;;10.00;8.65;;;;;;;20.98;76.46;101136.19;4973786;28;20474;-79
2023/07/21 06:04:11;;;;;;;10.05;9.05;;;;;;;20.13;75.67;101061.66;4973784;28;20041;-77
2023/07/21 06:06:45;;;;;;;10.60;9.07;;;;;;;20.30;74.74;101066.06;4956805;28;20034;-80
2023/07/21 06:09:11;;;;;;;9.82;8.82;;;;;;;20.02;74.09;100960.50;4973461;28;20035;-79
2023/07/21 06:11:58;;;;;;;9.77;8.77;;;;;;;21.53;73.75;101133.94;4973821;28;20097;-79
2023/07/21 06:15:29;;;;;;;;;;;;;;;;;;;;;
2023/07/21 06:21:15;;;;;;;10.48;9.13;;;;;;;20.37;73.11;101072.34;4973741;28;20113;-80
2023/07/21 06:39:13;;;;;;;12.05;10.85;;;;;;;17.61;87.14;100999.19;4975768;28;20122;-80
2023/07/21 06:41:53;;;;;;;13.10;11.60;;;;;;;17.61;89.21;101010.47;4975335;28;20035;-77
2023/07/21 06:44:20;;;;;;;11.85;10.63;;;;;;;18.22;88.39;101117.31;4974949;28;20031;-82
2023/07/21 06:47:01;;;;;;;13.85;11.05;;;;;;;18.24;89.05;101120.59;4975271;28;20474;-83
2023/07/21 06:49:26;;;;;;;13.13;11.82;;;;;;;18.20;89.03;101121.88;4975089;28;20062;-81
2023/07/21 06:51:52;;;;;;;13.40;12.00;;;;;;;18.37;89.80;101119.50;4975172;28;20030;-82
2023/07/21 06:54:17;;;;;;;14.18;12.00;;;;;;;18.26;87.15;101076.84;4975198;28;20117;-84
2023/07/21 06:56:43;;;;;;;12.95;11.65;;;;;;;18.66;85.12;101114.22;4975243;28;20026;-81
2023/07/21 06:59:08;;;;;;;13.48;11.90;;;;;;;18.84;86.42;101113.34;4957194;28;20045;-83
2023/07/21 07:01:33;;;;;;;11.57;10.27;;;;;;;19.27;83.33;101108.47;4974788;28;20114;-80
2023/07/21 07:03:59;;;;;;;12.15;10.40;;;;;;;19.42;82.51;101091.31;4974921;28;20073;-78
2023/07/21 07:06:27;;;;;;;8.82;7.90;;;;;;;19.87;79.97;101096.53;4974853;28;20390;-78
2023/07/21 07:08:52;;;;;;;10.50;8.90;;;;;;;20.06;78.82;101127.03;4974738;28;20109;-85
2023/07/21 07:11:18;;;;;;;9.73;8.65;;;;;;;20.07;78.79;101125.22;4974544;28;20103;-83
2023/07/21 07:13:43;;;;;;;11.55;9.75;;;;;;;20.07;78.57;101115.56;4974701;28;20062;-84
2023/07/21 07:16:09;;;;;;;12.02;10.15;;;;;;;20.03;79.00;101104.53;4974486;28;20031;-84
2023/07/21 07:18:34;;;;;;;15.43;9.20;;;;;;;20.14;77.77;101118.38;4974496;28;20034;-83
2023/07/21 07:20:59;;;;;;;10.75;8.45;;;;;;;19.96;77.73;101095.63;4974654;28;20034;-81
2023/07/21 07:23:25;;;;;;;11.07;9.73;;;;;;;19.51;77.42;101017.06;4974539;28;20038;-83
2023/07/21 07:25:53;;;;;;;9.75;7.18;;;;;;;20.36;77.19;101117.91;4974524;28;20027;-83
2023/07/21 07:28:20;;;;;;;10.07;9.07;;;;;;;20.28;77.39;101110.81;4974492;28;20047;-83
2023/07/21 07:30:47;;;;;;;12.70;8.80;;;;;;;20.23;76.29;101099.09;4988179;28;20065;-83
2023/07/21 07:33:16;;;;;;;9.77;8.00;;;;;;;20.44;76.67;101085.69;4993825;28;20030;-81
2023/07/21 07:35:47;;;;;;;11.43;8.98;;;;;;;20.95;77.24;101111.06;4993666;28;20549;-83
2023/07/21 07:38:12;;;;;;;10.25;9.02;;;;;;;21.34;72.40;101100.91;4993881;28;20114;-82
2023/07/21 07:40:38;;;;;;;8.93;7.70;;;;;;;21.58;71.82;101091.44;4993480;28;20105;-83
2023/07/21 07:43:03;;;;;;;9.13;8.23;;;;;;;21.59;69.44;101119.34;4993080;28;20117;-83
2023/07/21 07:45:29;;;;;;;12.50;8.35;;;;;;;21.38;70.24;101114.53;4993546;28;20554;-82
2023/07/21 07:47:55;;;;;;;9.43;8.45;;;;;;;21.17;71.32;101094.75;4993490;28;20065;-82
2023/07/21 07:50:21;;;;;;;10.88;9.50;;;;;;;21.23;70.80;101122.16;4993257;28;20105;-82
2023/07/21 07:52:46;;;;;;;10.82;8.35;;;;;;;21.40;70.96;101118.66;4993583;28;20109;-78
2023/07/21 07:55:15;;;;;;;9.70;8.07;;;;;;;21.59;70.63;101114.91;4993517;28;20025;-81
2023/07/21 07:57:41;;;;;;;11.57;9.30;;;;;;;21.64;70.75;101120.53;4975704;28;20053;-81
2023/07/21 08:00:08;;;;;;;9.63;8.43;;;;;;;21.75;70.96;101107.06;4993320;28;20023;-81
2023/07/21 08:02:33;;;;;;;8.60;7.45;;;;;;;21.80;68.09;101101.31;4993377;28;20455;-81
2023/07/21 08:04:59;;;;;;;8.40;6.38;;;;;;;22.01;70.04;101116.59;4975858;28;20049;-78
2023/07/21 08:07:25;;;;;;;8.93;7.68;;;;;;;21.86;69.38;101113.81;4993138;28;20022;-82
2023/07/21 08:09:50;;;;;;;10.15;8.32;;;;;;;21.56;71.12;101090.78;4992987;28;20080;-74
2023/07/21 08:12:15;;;;;;;9.13;6.82;;;;;;;21.58;69.13;101120.34;4993257;28;20106;-82
2023/07/21 08:14:41;;;;;;;8.75;7.05;;;;;;;21.26;70.19;101116.66;4993295;28;20034;-79
2023/07/21 08:17:06;;;;;;;9.73;8.73;;;;;;;20.88;71.59;101105.63;4993119;28;20064;-80
2023/07/21 08:19:32;;;;;;;8.73;7.30;;;;;;;20.85;73.79;101116.44;4992305;28;20026;-83
2023/07/21 08:22:04;;;;;;;10.30;8.02;;;;;;;20.82;74.54;101115.91;4993327;28;20030;-82
2023/07/21 08:24:29;;;;;;;9.55;8.43;;;;;;;20.92;74.74;101117.44;4993351;28;20027;-84
2023/07/21 08:26:55;;;;;;;10.15;8.35;;;;;;;21.06;76.51;101104.72;4993262;28;20026;-84
2023/07/21 08:29:20;;;;;;;12.68;8.35;;;;;;;21.25;77.48;101120.22;4990479;28;20030;-78
2023/07/21 08:31:45;;;;;;;10.40;9.25;;;;;;;21.22;72.51;101119.69;4956406;28;20130;-80
2023/07/21 08:34:11;;;;;;;9.10;7.65;;;;;;;21.37;75.43;101113.72;4973787;28;20039;-83
2023/07/21 08:36:36;;;;;;;9.40;7.63;;;;;;;21.44;73.30;101119.16;4973299;28;20027;-85
2023/07/21 08:39:01;;;;;;;9.63;7.97;;;;;;;21.40;74.32;101120.47;4973689;28;20050;-82
2023/07/21 08:41:27;;;;;;;9.32;7.70;;;;;;;21.37;73.60;101113.72;4973713;28;20027;-88
2023/07/21 08:43:57;;;;;;;9.65;8.43;;;;;;;21.27;72.53;101118.28;4973726;28;20026;-87
2023/07/21 08:46:23;;;;;;;6.78;5.15;;;;;;;21.33;75.24;101115.00;4973515;28;20031;-83
2023/07/21 08:48:51;;;;;;;8.00;6.90;;;;;;;21.11;70.91;101094.56;4973986;28;20038;-82
2023/07/21 08:51:17;;;;;;;10.05;6.28;;;;;;;21.09;71.26;101083.38;4973248;28;20494;-82
2023/07/21 08:53:45;;;;;;;9.65;6.97;;;;;;;21.19;68.91;101121.66;4955917;28;20058;-86
2023/07/21 08:56:10;;;;;;;8.55;5.90;;;;;;;21.13;67.75;101129.34;4976677;28;20027;-87
2023/07/21 08:58:35;;;;;;;8.55;7.15;;;;;;;20.96;70.48;101109.28;4959576;28;20125;-82
2023/07/21 09:01:07;;;;;;;8.07;6.90;;;;;;;20.70;69.96;101086.50;4977214;28;20383;-84
2023/07/21 09:03:32;;;;;;;;;;;;;;;21.10;72.05;101124.41;4959710;28;20055;-77
2023/07/21 09:06:01;;;;;;;7.30;6.13;;;;;;;20.69;69.12;101079.59;4977134;28;19914;-79
2023/07/21 09:08:32;;;;;;;10.02;6.05;;;;;;;20.95;69.74;101116.34;4977128;28;20070;-78
2023/07/21 09:11:01;;;;;;;;;;;;;;;21.13;69.96;101116.22;4977583;28;20475;-79
2023/07/21 09:13:28;;;;;;;9.52;7.32;;;;;;;21.07;67.93;101111.63;5045005;23;19929;-78
2023/07/21 09:15:59;;;;;;;8.15;6.63;;;;;;;21.13;66.32;101113.59;4996229;28;20038;-78
2023/07/21 09:18:28;;;;;;;7.50;5.65;;;;;;;21.38;66.26;101099.59;4996349;28;20057;-80
2023/07/21 09:20:55;;;;;;;7.05;4.85;;;;;;;21.80;65.45;101124.16;4978592;28;20052;-79
2023/07/21 09:23:21;;;;;;;9.30;6.63;;;;;;;22.07;65.45;101115.19;4996053;28;20052;-78
2023/07/21 09:25:54;;;;;;;8.00;6.82;;;;;;;22.30;64.81;101116.13;4994830;28;20402;-79
2023/07/21 09:28:41;;;;;;;8.40;5.90;;;;;;;22.31;63.44;101112.53;4996543;28;20096;-80
2023/07/21 09:31:07;;;;;;;7.82;5.45;;;;;;;22.42;62.19;101098.19;4996081;28;20041;-79
2023/07/21 09:33:37;;;;;;;8.18;6.68;;;;;;;22.68;61.09;101109.34;4995561;28;20453;-78
2023/07/21 09:36:08;;;;;;;8.00;5.50;;;;;;;22.72;59.91;101063.25;4995806;28;20536;-81
2023/07/21 09:38:36;;;;;;;6.30;4.53;;;;;;;23.06;57.50;101106.94;4995983;28;20030;-81
2023/07/21 09:41:04;;;;;;;6.45;4.60;;;;;;;23.20;60.22;101095.66;4995812;28;20054;-78
2023/07/21 09:43:32;;;;;;;7.68;5.20;;;;;;;23.26;58.74;101096.81;4995697;28;20030;-82
2023/07/21 09:46:02;;;;;;;9.48;5.93;;;;;;;23.02;57.90;101085.41;4995769;28;20359;-76
2023/07/21 09:48:29;;;;;;;6.07;5.27;;;;;;;22.83;59.52;101093.66;4996014;28;20431;-80
2023/07/21 09:51:00;;;;;;;8.43;4.88;;;;;;;22.65;60.94;101095.69;4995616;28;20026;-82
2023/07/21 09:53:39;;;;;;;9.18;5.95;;;;;;;22.26;62.07;101067.47;4995672;28;20101;-81
2023/07/21 09:56:08;;;;;;;5.30;4.03;;;;;;;22.19;59.24;101098.06;4995840;28;20026;-81
2023/07/21 09:58:36;;;;;;;8.00;6.43;;;;;;;21.84;60.08;101073.72;4995448;28;20109;-79
2023/07/21 10:01:04;;;;;;;8.38;6.35;;;;;;;21.83;62.93;101089.66;4978044;28;20117;-80
2023/07/21 10:03:31;;;;;;;9.80;8.25;;;;;;;21.41;61.56;101059.03;4994297;28;20390;-80
2023/07/21 10:05:58;;;;;;;10.25;7.55;;;;;;;21.53;64.07;101101.59;4995576;28;20018;-77
2023/07/21 10:08:27;;;;;;;7.85;6.28;;;;;;;21.40;64.12;101081.03;4995386;28;20029;-80
2023/07/21 10:10:57;;;;;;;8.88;7.10;;;;;;;21.44;64.78;101093.72;4977375;28;20038;-79
2023/07/21 10:13:25;;;;;;;9.52;7.55;;;;;;;21.14;65.17;101060.94;4995139;28;20046;-80
2023/07/21 10:15:51;;;;;;;8.73;7.32;;;;;;;21.14;65.79;101046.97;4995172;28;20031;-80
2023/07/21 10:18:18;;;;;;;12.70;7.82;;;;;;;21.15;62.96;101054.69;4995262;28;20128;-80
2023/07/21 10:20:52;;;;;;;9.23;6.45;;;;;;;21.36;63.72;101067.41;4995319;28;20363;-81
2023/07/21 10:23:47;;;;;;;8.35;6.40;;;;;;;21.70;62.52;101090.13;4995096;28;20473;-80
2023/07/21 10:26:16;;;;;;;11.18;8.35;;;;;;;21.83;58.79;101074.72;4995139;28;20533;-80
2023/07/21 10:28:44;;;;;;;8.98;6.03;;;;;;;22.26;58.96;101083.28;4995002;28;20030;-80
2023/07/21 10:31:24;;;;;;;9.13;7.30;;;;;;;22.51;59.39;101078.78;4995280;28;20042;-80
2023/07/21 10:34:14;;;;;;;8.43;4.63;;;;;;;22.86;60.69;101082.81;4994679;28;20130;-80
2023/07/21 10:36:58;;;;;;;7.70;5.88;;;;;;;23.06;58.14;101075.31;4994769;28;20027;-79
2023/07/21 10:39:27;;;;;;;8.40;6.07;;;;;;;23.14;53.22;101080.56;4994876;28;20030;-79
2023/07/21 10:41:54;;;;;;;7.45;6.00;;;;;;;22.93;54.66;101046.09;4994431;28;20026;-79
2023/07/21 10:44:21;;;;;;;7.38;5.80;;;;;;;23.13;54.21;101077.09;5008165;23;20134;-80
2023/07/21 10:46:48;;;;;;;7.32;4.80;;;;;;;23.45;54.82;101075.28;4994819;28;20026;-79
2023/07/21 10:49:16;;;;;;;7.95;6.35;;;;;;;23.61;53.34;101075.22;4994778;28;20030;-80
2023/07/21 10:52:14;;;;;;;6.45;5.28;;;;;;;23.82;56.08;101068.47;5240069;23;20053;-77
2023/07/21 10:54:40;;;;;;;5.78;4.55;;;;;;;23.29;54.40;101038.47;5000644;23;20088;-77
2023/07/21 10:57:08;;;;;;;11.07;6.25;;;;;;;22.94;53.82;101050.38;4994187;28;20074;-79
2023/07/21 10:59:35;;;;;;;7.93;4.22;;;;;;;22.67;56.22;101046.31;4976237;28;20026;-78
2023/07/21 11:02:03;;;;;;;7.30;6.18;;;;;;;22.38;57.79;101065.31;4994231;28;20026;-78
2023/07/21 11:04:29;;;;;;;10.88;8.43;;;;;;;21.79;58.86;101046.28;4994045;28;20034;-77
2023/07/21 11:06:57;;;;;;;16.40;6.45;;;;;;;21.62;61.06;101075.16;4976490;28;20023;-77
2023/07/21 11:19:52;;;;;;;18.60;16.63;;;;;;;18.28;83.07;101161.19;5245183;23;20050;-76
2023/07/21 11:22:29;;;;;;;16.15;13.70;;;;;;;17.12;85.28;101059.19;5013362;28;20069;-77
2023/07/21 11:25:20;;;;;;;13.20;11.50;;;;;;;17.65;87.51;101181.59;5013578;28;20068;-78
2023/07/21 11:27:53;;;;;;;16.15;12.95;;;;;;;16.32;90.49;101020.78;5013490;28;20022;-76
2023/07/21 11:30:19;;;;;;;16.25;13.10;;;;;;;17.17;92.56;101166.59;5028391;28;20029;-76
2023/07/21 11:33:40;;;;;;;16.65;13.40;;;;;;;16.18;92.37;101009.88;5013448;28;20485;-76
2023/07/21 11:36:33;;;;;;;16.67;14.07;;;;;;;15.75;95.06;100956.97;4995923;28;20037;-75
2023/07/21 11:39:10;;;;;;;15.27;13.23;;;;;;;16.95;95.64;101158.94;5013026;28;20113;-76
2023/07/21 12:01:51;;;;;;;;;;;;;;;20.17;85.13;101129.41;5011907;28;20129;-79
2023/07/21 12:15:13;;;;;;;11.38;10.27;;;;;;;20.33;81.32;101118.19;5012079;28;20041;-78
2023/07/21 12:21:54;;;;;;;12.07;10.88;;;;;;;19.50;85.46;101143.78;5000400;28;20100;-76
2023/07/21 12:24:20;;;;;;;11.65;9.95;;;;;;;18.94;86.83;101144.72;5030890;28;20041;-75
2023/07/21 12:26:48;;;;;;;12.57;11.07;;;;;;;18.66;89.41;101171.78;5030384;28;20496;-76
2023/07/21 12:29:13;;;;;;;12.57;11.27;;;;;;;18.35;90.87;101169.31;5030392;28;20048;-74
2023/07/21 12:31:39;;;;;;;13.63;12.20;;;;;;;18.02;93.60;101167.94;5026156;28;20029;-76
2023/07/21 12:34:04;;;;;;;13.48;12.13;;;;;;;17.73;95.30;101144.38;5015433;28;20048;-74
2023/07/21 12:36:30;;;;;;;14.23;12.85;;;;;;;17.71;97.61;101154.16;5017679;28;20132;-76
2023/07/21 12:38:56;;;;;;;12.90;11.63;;;;;;;17.71;96.80;101165.44;5034030;28;20091;-76
2023/07/21 12:41:21;;;;;;;12.35;11.02;;;;;;;17.64;96.05;101159.06;5034292;28;20508;-77
2023/07/21 12:43:46;;;;;;;14.10;12.60;;;;;;;17.49;97.71;101134.25;5033979;28;20044;-78
2023/07/21 12:46:14;;;;;;;15.00;12.57;;;;;;;17.54;97.26;101146.94;5034143;28;20030;-76
2023/07/21 12:48:41;;;;;;;14.38;12.88;;;;;;;17.59;96.44;101142.13;5033942;28;20083;-77
2023/07/21 12:51:06;;;;;;;12.82;11.63;;;;;;;17.73;97.83;101142.59;5034195;28;20432;-78
2023/07/21 12:53:31;;;;;;;13.43;11.93;;;;;;;17.83;96.06;101147.84;5034053;28;20030;-79
2023/07/21 12:56:01;;;;;;;12.32;11.13;;;;;;;17.92;94.25;101144.41;5033863;28;20048;-79
2023/07/21 12:58:26;;;;;;;12.98;11.60;;;;;;;17.96;96.25;101134.50;5033947;28;20060;-79
2023/07/21 13:00:51;;;;;;;12.13;10.93;;;;;;;18.11;97.91;101137.56;5033997;28;20392;-79
2023/07/21 13:03:20;;;;;;;10.45;9.45;;;;;;;18.23;96.06;101139.88;5033709;28;20065;-79
2023/07/21 13:19:24;;;;;;;9.95;8.95;;;;;;;20.25;86.87;101141.72;5899494;22;20057;-80
2023/07/21 13:26:54;;;;;;;11.23;10.10;;;;;;;20.73;85.48;101141.28;5015627;28;20131;-80
2023/07/21 13:33:12;;;;;;;10.75;9.75;;;;;;;18.58;88.28;100973.66;5015667;28;20042;-79
2023/07/21 13:39:53;;;;;;;13.25;11.95;;;;;;;17.93;90.64;100962.34;5015981;28;20044;-78
2023/07/21 13:42:27;;;;;;;16.27;14.68;;;;;;;18.63;91.68;101087.38;5015122;28;20040;-79
2023/07/21 13:48:48;;;;;;;14.93;13.32;;;;;;;19.34;91.82;101156.69;5015827;28;20501;-81
2023/07/21 13:51:14;;;;;;;13.07;11.63;;;;;;;19.47;90.58;101147.53;5015545;28;20030;-82
2023/07/21 13:53:57;;;;;;;15.48;13.93;;;;;;;18.93;91.38;101048.88;5014468;28;20025;-83
2023/07/21 13:59:56;;;;;;;15.07;13.57;;;;;;;19.20;88.53;101048.84;5015303;28;20088;-80
2023/07/21 14:02:47;;;;;;;15.60;14.00;;;;;;;19.90;90.19;101119.81;5014191;28;20120;-80
2023/07/21 14:05:37;;;;;;;12.90;11.65;;;;;;;20.33;87.02;101149.66;4985110;28;20034;-81
2023/07/21 14:14:26;;;;;;;15.32;13.82;;;;;;;19.50;88.08;100976.16;5014879;28;20037;-80
2023/07/21 14:17:10;;;;;;;11.93;10.73;;;;;;;19.71;86.45;100979.28;5014786;28;20037;-80
2023/07/21 14:19:51;;;;;;;12.60;11.32;;;;;;;20.73;84.25;101133.41;5015114;28;20033;-80
2023/07/21 14:26:06;;;;;;;10.52;9.05;;;;;;;21.40;83.95;101155.44;5014500;28;19972;-79
2023/07/21 14:35:35;;;;;;;11.77;10.02;;;;;;;21.45;78.57;101063.81;4976844;28;20050;-81
2023/07/21 14:51:15;;;;;;;9.48;6.13;;;;;;;21.40;66.19;101165.13;5014457;28;20128;-79
2023/07/21 14:57:41;;;;;;;8.68;5.38;;;;;;;21.08;65.89;101163.16;5013586;28;20037;-79
2023/07/21 15:00:51;;;;;;;7.57;5.07;;;;;;;19.97;64.86;101033.56;4979021;28;20041;-79
2023/07/21 15:03:16;;;;;;;9.32;5.25;;;;;;;19.75;59.50;101061.84;4996301;28;20375;-80
2023/07/21 15:09:44;;;;;;;10.23;5.82;;;;;;;19.85;60.39;101111.56;5007936;28;20052;-80
2023/07/21 15:15:43;;;;;;;;;;;;;;;20.31;65.11;101165.56;5014485;28;20037;-81
2023/07/21 15:18:14;;;;;;;8.85;5.60;;;;;;;20.33;61.01;101170.66;5013685;28;19987;-80
2023/07/21 15:20:45;;;;;;;;;;;;;;;20.52;61.90;101174.94;5014045;28;20021;-80
2023/07/21 15:23:18;;;;;;;8.45;5.57;;;;;;;19.33;62.31;100988.25;5013244;28;20357;-81
2023/07/21 15:26:37;;;;;;;7.40;4.78;;;;;;;20.45;59.59;101174.75;5198809;22;20116;-80
2023/07/21 15:29:09;;;;;;;7.50;4.35;;;;;;;19.19;60.16;100992.22;5027770;28;20049;-79
2023/07/21 15:31:40;;;;;;;8.23;5.35;;;;;;;19.80;59.62;101094.66;5014099;28;20032;-79
2023/07/21 15:34:22;;;;;;;7.68;5.40;;;;;;;19.44;56.98;101029.13;4996261;28;20084;-77
2023/07/21 15:37:03;;;;;;;7.93;5.57;;;;;;;19.48;59.33;101017.38;4995565;28;20075;-79
2023/07/21 15:39:41;;;;;;;10.73;5.82;;;;;;;19.46;54.35;101016.69;5013406;28;20026;-79
2023/07/21 15:42:13;;;;;;;8.27;5.45;;;;;;;20.20;55.85;101131.72;5012847;28;20017;-79
2023/07/21 15:45:04;;;;;;;9.80;5.68;;;;;;;20.65;53.65;101192.91;4995795;28;20084;-78
2023/07/21 15:47:29;;;;;;;7.85;5.40;;;;;;;20.24;51.88;101164.50;4995702;28;20025;-79
2023/07/21 15:49:54;;;;;;;7.47;5.25;;;;;;;20.29;52.97;101198.19;5012980;28;20390;-79
2023/07/21 15:52:20;;;;;;;7.85;5.13;;;;;;;20.30;49.50;101198.03;5013061;28;20527;-77
2023/07/21 15:54:48;;;;;;;7.40;5.28;;;;;;;20.35;53.31;101202.78;5012909;28;20482;-79